createdAt,value
2023-04-15T00:02:26.977Z,14.07
2023-04-15T00:05:33.780Z,10.70
2023-04-15T00:08:40.314Z,8.03
2023-04-15T00:11:46.990Z,7.70
2023-04-15T00:14:53.378Z,8.30
2023-04-15T00:18:00.760Z,9.00
2023-04-15T00:21:07.338Z,8.00
2023-04-15T00:24:13.597Z,8.53
2023-04-15T00:27:19.957Z,8.43
2023-04-15T00:30:26.699Z,7.53
2023-04-15T00:33:34.299Z,6.33
2023-04-15T00:36:40.834Z,6.30
2023-04-15T00:39:47.334Z,6.70
2023-04-15T00:42:53.753Z,5.50
2023-04-15T00:46:02.825Z,4.70
2023-04-15T00:49:10.433Z,5.97
2023-04-15T00:52:16.758Z,7.03
2023-04-15T00:55:23.068Z,6.20
2023-04-15T00:58:29.387Z,5.30
2023-04-15T01:01:37.172Z,3.97
2023-04-15T01:04:45.221Z,3.20
2023-04-15T01:07:51.566Z,3.33
2023-04-15T01:10:59.713Z,7.77
2023-04-15T01:14:07.499Z,8.27
2023-04-15T01:17:14.641Z,8.37
2023-04-15T01:20:23.615Z,7.17
2023-04-15T01:23:30.647Z,9.73
2023-04-15T01:26:39.294Z,9.27
2023-04-15T01:29:45.643Z,8.50
2023-04-15T01:32:51.979Z,9.40
2023-04-15T01:35:58.676Z,9.30
2023-04-15T01:39:05.770Z,9.47
2023-04-15T01:42:13.595Z,9.67
2023-04-15T01:45:20.146Z,8.30
2023-04-15T01:48:27.514Z,8.13
2023-04-15T01:51:33.786Z,6.03
2023-04-15T01:54:40.200Z,5.13
2023-04-15T01:57:47.872Z,5.57
2023-04-15T02:00:54.029Z,7.10
2023-04-15T02:04:00.167Z,7.00
2023-04-15T02:07:06.404Z,8.70
2023-04-15T02:10:13.698Z,9.10
2023-04-15T02:13:21.049Z,7.70
2023-04-15T02:16:27.465Z,9.57
2023-04-15T02:19:33.720Z,8.10
2023-04-15T02:22:40.285Z,7.23
2023-04-15T02:25:53.704Z,8.70
2023-04-15T02:29:02.249Z,7.17
2023-04-15T02:32:09.000Z,7.60
2023-04-15T02:35:15.188Z,6.87
2023-04-15T02:38:21.316Z,10.47
2023-04-15T02:41:28.732Z,10.50
2023-04-15T02:44:36.676Z,9.23
2023-04-15T02:47:43.456Z,13.80
2023-04-15T02:50:49.920Z,13.80
2023-04-15T02:53:56.776Z,7.60
2023-04-15T02:57:03.106Z,14.03
2023-04-15T03:00:12.194Z,12.43
2023-04-15T03:03:18.840Z,8.63
2023-04-15T03:06:25.134Z,9.73
2023-04-15T03:09:31.250Z,7.90
2023-04-15T03:12:37.758Z,7.50
2023-04-15T03:15:45.467Z,9.30
2023-04-15T03:18:52.142Z,9.37
2023-04-15T03:21:58.597Z,7.87
2023-04-15T03:25:05.705Z,8.87
2023-04-15T03:28:12.227Z,9.53
2023-04-15T03:31:20.157Z,7.63
2023-04-15T03:34:26.660Z,7.50
2023-04-15T03:37:33.220Z,12.20
2023-04-15T03:40:40.244Z,12.43
2023-04-15T03:43:46.725Z,14.70
2023-04-15T03:46:54.801Z,16.00
2023-04-15T03:50:01.122Z,12.07
2023-04-15T03:53:07.551Z,18.20
2023-04-15T03:56:13.448Z,14.00
2023-04-15T03:59:19.732Z,15.43
2023-04-15T04:02:28.563Z,9.63
2023-04-15T04:05:37.206Z,7.70
2023-04-15T04:08:43.627Z,8.60
2023-04-15T04:11:49.707Z,16.97
2023-04-15T04:14:55.747Z,15.33
2023-04-15T04:18:03.853Z,13.53
2023-04-15T04:21:10.109Z,14.93
2023-04-15T04:24:16.585Z,9.93
2023-04-15T04:27:22.721Z,11.40
2023-04-15T04:30:29.394Z,21.30
2023-04-15T04:33:37.015Z,23.70
2023-04-15T04:36:43.273Z,24.43
2023-04-15T04:39:49.589Z,24.67
2023-04-15T04:42:56.138Z,33.60
2023-04-15T04:46:02.810Z,32.93
2023-04-15T04:49:10.511Z,22.83
2023-04-15T04:52:17.022Z,14.70
2023-04-15T04:55:23.418Z,14.27
2023-04-15T04:58:29.726Z,13.70
2023-04-15T05:01:36.145Z,12.97
2023-04-15T05:04:43.823Z,9.77
2023-04-15T05:07:50.819Z,8.83
2023-04-15T05:10:57.714Z,14.07
2023-04-15T05:14:03.783Z,10.40
2023-04-15T05:17:09.770Z,9.37
2023-04-15T05:20:17.325Z,10.00
2023-04-15T05:23:23.479Z,10.43
2023-04-15T05:26:29.584Z,12.00
2023-04-15T05:29:36.245Z,13.67
2023-04-15T05:32:42.558Z,14.30
2023-04-15T05:35:50.141Z,10.17
2023-04-15T05:38:56.605Z,13.20
2023-04-15T05:42:03.697Z,18.27
2023-04-15T05:45:10.581Z,36.40
2023-04-15T05:48:17.180Z,56.67
2023-04-15T05:51:24.797Z,19.70
2023-04-15T05:54:31.093Z,35.67
2023-04-15T05:57:37.868Z,12.10
2023-04-15T06:00:44.019Z,15.77
2023-04-15T06:03:51.482Z,21.90
2023-04-15T06:06:59.336Z,13.50
2023-04-15T06:10:06.345Z,12.50
2023-04-15T06:13:12.891Z,11.13
2023-04-15T06:16:19.324Z,10.17
2023-04-15T06:19:26.301Z,11.57
2023-04-15T06:22:33.903Z,11.67
2023-04-15T06:25:40.155Z,12.43
2023-04-15T06:28:46.388Z,11.43
2023-04-15T06:31:53.146Z,8.37
2023-04-15T06:34:59.628Z,12.23
2023-04-15T06:38:07.268Z,8.60
2023-04-15T06:41:13.934Z,10.93
2023-04-15T06:44:20.249Z,15.97
2023-04-15T06:47:26.864Z,13.73
2023-04-15T06:50:33.205Z,7.97
2023-04-15T06:53:42.699Z,8.10
2023-04-15T06:56:49.097Z,13.43
2023-04-15T06:59:56.087Z,7.10
2023-04-15T07:03:03.849Z,7.70
2023-04-15T07:06:10.311Z,10.87
2023-04-15T07:09:18.408Z,11.50
2023-04-15T07:12:24.661Z,16.07
2023-04-15T07:15:30.901Z,12.73
2023-04-15T07:18:37.492Z,11.43
2023-04-15T07:21:43.856Z,10.33
2023-04-15T07:24:51.648Z,8.17
2023-04-15T07:27:58.389Z,7.27
2023-04-15T07:31:05.109Z,8.33
2023-04-15T07:34:11.492Z,9.67
2023-04-15T07:37:17.953Z,7.60
2023-04-15T07:40:25.686Z,17.77
2023-04-15T07:43:31.866Z,13.63
2023-04-15T07:46:38.761Z,7.50
2023-04-15T07:49:45.564Z,8.87
2023-04-15T07:52:52.521Z,6.40
2023-04-15T07:55:59.968Z,5.50
2023-04-15T07:59:06.638Z,5.47
2023-04-15T08:02:13.320Z,5.53
2023-04-15T08:05:20.021Z,5.10
2023-04-15T08:08:26.649Z,5.47
2023-04-15T08:11:34.292Z,7.30
2023-04-15T08:14:40.948Z,10.03
2023-04-15T08:17:47.287Z,6.77
2023-04-15T08:20:53.947Z,5.80
2023-04-15T08:24:00.480Z,6.90
2023-04-15T08:27:08.979Z,10.17
2023-04-15T08:30:15.513Z,7.20
2023-04-15T08:33:22.133Z,8.07
2023-04-15T08:36:28.673Z,7.83
2023-04-15T08:39:35.064Z,6.77
2023-04-15T08:42:48.311Z,6.63
2023-04-15T08:45:55.924Z,4.30
2023-04-15T08:49:05.403Z,4.20
2023-04-15T08:52:12.388Z,7.00
2023-04-15T08:55:19.126Z,5.10
2023-04-15T08:58:27.440Z,4.37
2023-04-15T09:01:34.374Z,2.80
2023-04-15T09:04:41.591Z,3.13
2023-04-15T09:07:48.203Z,3.93
2023-04-15T09:10:55.680Z,4.43
2023-04-15T09:14:03.804Z,4.03
2023-04-15T09:17:12.204Z,15.50
2023-04-15T09:20:19.875Z,5.97
2023-04-15T09:23:26.244Z,3.27
2023-04-15T09:26:34.625Z,6.87
2023-04-15T09:29:43.789Z,3.10
2023-04-15T09:32:52.528Z,5.70
2023-04-15T09:36:00.943Z,6.00
2023-04-15T09:39:07.177Z,4.40
2023-04-15T09:42:13.528Z,5.17
2023-04-15T09:45:22.179Z,3.93
2023-04-15T09:48:29.124Z,3.27
2023-04-15T09:51:36.651Z,7.00
2023-04-15T09:54:43.006Z,9.67
2023-04-15T09:57:49.448Z,2.53
2023-04-15T10:00:58.607Z,2.30
2023-04-15T10:04:06.432Z,2.40
2023-04-15T10:07:13.870Z,2.23
2023-04-15T10:10:21.406Z,2.03
2023-04-15T10:13:33.077Z,2.67
2023-04-15T10:16:44.335Z,3.63
2023-04-15T10:19:51.587Z,2.90
2023-04-15T10:22:58.076Z,2.67
2023-04-15T10:26:05.700Z,9.27
2023-04-15T10:29:12.548Z,3.00
2023-04-15T10:32:22.781Z,2.50
2023-04-15T10:35:30.869Z,4.17
2023-04-15T10:38:39.462Z,2.60
2023-04-15T10:41:45.970Z,4.73
2023-04-15T10:44:58.123Z,4.80
2023-04-15T10:48:08.986Z,2.87
2023-04-15T10:51:15.830Z,5.03
2023-04-15T10:54:36.349Z,4.23
2023-04-15T10:57:43.885Z,3.80
2023-04-15T11:00:53.558Z,8.43
2023-04-15T11:04:02.067Z,3.50
2023-04-15T11:07:08.703Z,3.77
2023-04-15T11:10:55.136Z,3.20
2023-04-15T11:14:01.336Z,3.40
2023-04-15T11:17:08.004Z,3.07
2023-04-15T11:20:18.043Z,2.77
2023-04-15T11:23:30.352Z,3.60
2023-04-15T11:26:36.790Z,2.60
2023-04-15T11:29:44.297Z,2.30
2023-04-15T11:32:50.288Z,2.23
2023-04-15T11:35:58.113Z,2.33
2023-04-15T11:39:04.832Z,2.40
2023-04-15T11:42:18.673Z,2.93
2023-04-15T11:45:24.849Z,1.70
2023-04-15T11:48:32.666Z,2.30
2023-04-15T11:51:40.415Z,2.30
2023-04-15T11:54:46.784Z,3.47
2023-04-15T11:58:10.127Z,8.90
2023-04-15T12:01:16.366Z,2.43
2023-04-15T12:04:25.901Z,2.90
2023-04-15T12:07:33.876Z,3.27
2023-04-15T12:10:40.054Z,2.20
2023-04-15T12:13:47.128Z,4.77
2023-04-15T12:16:55.218Z,3.50
2023-04-15T12:20:04.753Z,3.60
2023-04-15T12:23:12.250Z,3.03
2023-04-15T12:26:19.361Z,4.33
2023-04-15T12:29:28.553Z,3.00
2023-04-15T12:32:37.408Z,3.80
2023-04-15T12:35:43.656Z,4.90
2023-04-15T12:38:51.190Z,2.40
2023-04-15T12:41:57.114Z,2.80
2023-04-15T12:45:03.295Z,2.20
2023-04-15T12:48:09.671Z,1.83
2023-04-15T12:51:15.787Z,2.40
2023-04-15T12:54:23.801Z,2.30
2023-04-15T12:57:29.999Z,2.70
2023-04-15T13:00:36.947Z,6.23
2023-04-15T13:03:43.504Z,18.17
2023-04-15T13:06:49.865Z,2.77
2023-04-15T13:09:57.606Z,2.40
2023-04-15T13:13:04.380Z,1.70
2023-04-15T13:16:11.167Z,2.20
2023-04-15T13:19:17.390Z,1.80
2023-04-15T13:22:23.945Z,2.17
2023-04-15T13:25:31.535Z,1.50
2023-04-15T13:28:38.372Z,4.40
2023-04-15T13:31:44.913Z,1.70
2023-04-15T13:34:51.054Z,4.43
2023-04-15T13:37:57.093Z,4.10
2023-04-15T13:41:04.584Z,1.40
2023-04-15T13:44:12.428Z,1.80
2023-04-15T13:47:18.909Z,1.80
2023-04-15T13:50:25.492Z,2.10
2023-04-15T13:53:38.882Z,2.13
2023-04-15T13:56:47.268Z,1.87
2023-04-15T13:59:54.089Z,1.83
2023-04-15T14:03:00.781Z,1.90
2023-04-15T14:06:08.074Z,2.00
2023-04-15T14:09:14.293Z,2.00
2023-04-15T14:12:22.175Z,4.10
2023-04-15T14:15:28.493Z,2.73
2023-04-15T14:18:35.059Z,1.80
2023-04-15T14:21:41.450Z,1.60
2023-04-15T14:24:48.931Z,1.30
2023-04-15T14:27:56.633Z,2.20
2023-04-15T14:31:02.915Z,1.33
2023-04-15T14:34:09.037Z,1.60
2023-04-15T14:37:15.613Z,2.63
2023-04-15T14:40:22.097Z,2.60
2023-04-15T14:43:30.067Z,1.97
2023-04-15T14:46:36.463Z,5.83
2023-04-15T14:49:42.847Z,1.80
2023-04-15T14:52:49.446Z,2.13
2023-04-15T14:55:55.747Z,1.60
2023-04-15T14:59:03.545Z,2.00
2023-04-15T15:02:11.493Z,1.53
2023-04-15T15:05:18.090Z,1.40
2023-04-15T15:08:25.201Z,2.10
2023-04-15T15:11:31.908Z,5.63
2023-04-15T15:14:40.040Z,3.57
2023-04-15T15:17:46.563Z,3.90
2023-04-15T15:20:52.982Z,2.97
2023-04-15T15:23:59.271Z,3.63
2023-04-15T15:27:05.574Z,3.77
2023-04-15T15:30:14.426Z,4.23
2023-04-15T15:33:20.940Z,3.60
2023-04-15T15:36:27.532Z,4.97
2023-04-15T15:39:33.750Z,4.53
2023-04-15T15:42:39.973Z,2.30
2023-04-15T15:45:48.266Z,2.00
2023-04-15T15:48:54.510Z,3.30
2023-04-15T15:52:01.549Z,4.10
2023-04-15T15:55:08.766Z,6.83
2023-04-15T15:58:15.136Z,9.60
2023-04-15T16:01:23.283Z,14.60
2023-04-15T16:04:29.756Z,8.43
2023-04-15T16:07:36.128Z,17.30
2023-04-15T16:10:42.424Z,14.03
2023-04-15T16:13:48.454Z,9.00
2023-04-15T16:16:56.300Z,8.03
2023-04-15T16:20:05.635Z,6.90
2023-04-15T16:23:15.614Z,6.27
2023-04-15T16:26:21.897Z,6.97
2023-04-15T16:29:28.308Z,5.97
2023-04-15T16:32:36.227Z,4.47
2023-04-15T16:35:42.509Z,5.43
2023-04-15T16:38:48.936Z,4.43
2023-04-15T16:41:55.246Z,5.77
2023-04-15T16:45:01.850Z,4.23
2023-04-15T16:48:09.651Z,4.77
2023-04-15T16:51:16.136Z,4.97
2023-04-15T16:54:22.693Z,3.50
2023-04-15T16:57:50.694Z,3.70
2023-04-15T17:00:55.591Z,4.00
2023-04-15T17:04:03.608Z,5.53
2023-04-15T17:07:10.737Z,4.77
2023-04-15T17:10:17.103Z,3.70
2023-04-15T17:13:23.416Z,4.53
2023-04-15T17:16:29.738Z,16.53
2023-04-15T17:19:55.891Z,36.47
2023-04-15T17:23:02.013Z,12.23
2023-04-15T17:26:08.285Z,6.80
2023-04-15T17:29:14.678Z,4.70
2023-04-15T17:32:22.718Z,7.70
2023-04-15T17:35:30.594Z,25.20
2023-04-15T17:38:36.875Z,33.00
2023-04-15T17:41:43.037Z,17.07
2023-04-15T17:44:49.442Z,20.67
2023-04-15T17:47:55.741Z,14.40
2023-04-15T17:51:03.694Z,19.30
2023-04-15T17:54:09.861Z,8.17
2023-04-15T17:57:16.803Z,6.93
2023-04-15T18:00:23.093Z,8.80
2023-04-15T18:03:29.327Z,10.80
2023-04-15T18:06:37.078Z,16.23
2023-04-15T18:09:44.465Z,5.90
2023-04-15T18:12:50.519Z,6.57
2023-04-15T18:15:57.658Z,7.60
2023-04-15T18:19:04.008Z,12.70
2023-04-15T18:22:14.445Z,18.20
2023-04-15T18:25:20.953Z,18.60
2023-04-15T18:28:27.175Z,25.60
2023-04-15T18:31:33.499Z,27.77
2023-04-15T18:34:39.853Z,29.87
2023-04-15T18:37:47.565Z,23.83
2023-04-15T18:40:53.828Z,22.70
2023-04-15T18:44:00.422Z,27.60
2023-04-15T18:47:06.950Z,28.03
2023-04-15T18:50:13.181Z,20.10
2023-04-15T18:53:20.931Z,20.77
2023-04-15T18:56:27.432Z,30.17
2023-04-15T18:59:33.807Z,17.50
2023-04-15T19:02:40.745Z,26.30
2023-04-15T19:05:47.032Z,25.13
2023-04-15T19:08:54.494Z,53.23
2023-04-15T19:12:01.842Z,35.87
2023-04-15T19:15:09.080Z,35.20
2023-04-15T19:18:15.572Z,18.13
2023-04-15T19:21:22.124Z,21.33
2023-04-15T19:24:32.366Z,39.67
2023-04-15T19:27:39.428Z,36.30
2023-04-15T19:30:46.038Z,41.20
2023-04-15T19:33:52.376Z,27.40
2023-04-15T19:36:58.626Z,21.40
2023-04-15T19:40:06.899Z,21.20
2023-04-15T19:43:13.152Z,23.97
2023-04-15T19:46:19.463Z,22.40
2023-04-15T19:49:27.223Z,20.63
2023-04-15T19:52:33.234Z,12.67
2023-04-15T19:55:41.693Z,17.53
2023-04-15T19:58:52.813Z,21.27
2023-04-15T20:02:11.739Z,31.17
2023-04-15T20:05:17.910Z,34.60
2023-04-15T20:08:24.447Z,33.57
2023-04-15T20:12:48.262Z,21.53
2023-04-15T20:14:58.222Z,17.80
2023-04-15T20:18:04.582Z,21.20
2023-04-15T20:21:10.814Z,29.53
2023-04-15T20:24:18.006Z,32.00
2023-04-15T20:27:25.881Z,37.00
2023-04-15T20:30:32.277Z,32.63
2023-04-15T20:33:38.841Z,33.57
2023-04-15T20:36:45.131Z,27.27
2023-04-15T20:39:51.720Z,22.87
2023-04-15T20:42:59.487Z,23.23
2023-04-15T20:46:17.733Z,38.23
2023-04-15T20:49:27.141Z,31.17
2023-04-15T20:52:33.354Z,15.83
2023-04-15T20:55:39.756Z,7.77
2023-04-15T20:58:47.570Z,11.43
2023-04-15T21:01:53.907Z,17.73
2023-04-15T21:05:00.592Z,24.10
2023-04-15T21:08:07.313Z,27.03
2023-04-15T21:11:21.881Z,30.90
2023-04-15T21:14:37.189Z,33.83
2023-04-15T21:17:43.553Z,25.17
2023-04-15T21:20:57.825Z,23.80
2023-04-15T21:24:04.299Z,25.20
2023-04-15T21:27:10.914Z,24.40
2023-04-15T21:30:18.706Z,15.17
2023-04-15T21:33:25.616Z,12.87
2023-04-15T21:36:32.006Z,11.93
2023-04-15T21:39:38.415Z,5.70
2023-04-15T21:42:44.734Z,14.00
2023-04-15T21:46:22.385Z,32.23
2023-04-15T21:49:20.647Z,44.07
2023-04-15T21:52:27.112Z,105.40
2023-04-15T21:55:33.370Z,44.40
2023-04-15T21:58:40.992Z,16.00
2023-04-15T22:01:48.927Z,10.80
2023-04-15T22:04:55.200Z,7.27
2023-04-15T22:08:04.673Z,10.87
2023-04-15T22:11:11.499Z,6.90
2023-04-15T22:14:17.516Z,6.67
2023-04-15T22:17:25.539Z,7.43
2023-04-15T22:20:31.731Z,5.43
2023-04-15T22:23:37.925Z,6.70
2023-04-15T22:26:44.352Z,8.87
2023-04-15T22:29:50.891Z,11.67
2023-04-15T22:32:58.752Z,8.53
2023-04-15T22:36:05.364Z,11.63
2023-04-15T22:39:11.796Z,9.93
2023-04-15T22:42:18.239Z,15.80
2023-04-15T22:45:24.612Z,6.87
2023-04-15T22:48:32.162Z,6.93
2023-04-15T22:51:38.646Z,7.80
2023-04-15T22:54:44.860Z,6.63
2023-04-15T22:57:52.824Z,5.63
2023-04-15T23:00:59.250Z,4.50
2023-04-15T23:04:23.077Z,3.60
2023-04-15T23:07:31.336Z,3.60
2023-04-15T23:10:40.067Z,3.53
2023-04-15T23:13:46.382Z,3.87
2023-04-15T23:16:52.508Z,5.37
2023-04-15T23:20:00.181Z,11.23
2023-04-15T23:23:06.537Z,12.53
2023-04-15T23:26:12.975Z,10.63
2023-04-15T23:29:18.994Z,8.63
2023-04-15T23:32:25.166Z,9.13
2023-04-15T23:35:32.864Z,10.27
2023-04-15T23:38:39.296Z,10.90
2023-04-15T23:41:45.644Z,12.40
2023-04-15T23:44:51.966Z,10.80
2023-04-15T23:47:58.066Z,5.13
2023-04-15T23:51:06.102Z,7.23
2023-04-15T23:54:12.653Z,4.10
2023-04-15T23:57:19.676Z,5.50
